Time;durP1;ratioP1;P1;durP2;ratioP2;P2;SDS_P1;SDS_P2;PMS_P1;PMS_P2;Temp;Humidity;BMP_temperature;BMP_pressure;BME280_temperature;BME280_humidity;BME280_pressure;Samples;Min_cycle;Max_cycle;Signal;HPM_P1;HPM_P2
2023/08/05 00:01:41;;;;;;;6.50;4.20;;;;;;;25.53;96.76;100658.90;110075;1238;59799;-70
2023/08/05 00:04:10;;;;;;;7.50;4.60;;;;;;;25.46;97.12;100656.38;110039;1241;62257;-70
2023/08/05 00:06:39;;;;;;;9.50;4.50;;;;;;;25.38;98.26;100654.91;110109;1239;61166;-69
2023/08/05 00:09:08;;;;;;;9.50;4.80;;;;;;;25.30;98.47;100654.64;110089;1237;60587;-70
2023/08/05 00:11:36;;;;;;;7.40;4.30;;;;;;;25.21;98.78;100653.22;110156;1237;64722;-70
2023/08/05 00:14:05;;;;;;;7.10;5.10;;;;;;;25.12;98.51;100649.12;110154;1238;61430;-71
2023/08/05 00:16:34;;;;;;;9.90;5.30;;;;;;;25.04;98.92;100649.98;110158;1238;59983;-70
2023/08/05 00:19:03;;;;;;;10.00;5.10;;;;;;;24.96;100.00;100652.11;110101;1238;73394;-71
2023/08/05 00:21:31;;;;;;;5.20;4.50;;;;;;;24.88;99.81;100652.68;109871;1241;61346;-70
2023/08/05 00:24:00;;;;;;;6.00;4.90;;;;;;;24.81;100.00;100650.80;110106;1239;57764;-70
2023/08/05 00:26:29;;;;;;;8.80;5.10;;;;;;;24.77;99.76;100647.63;110076;1241;62833;-70
2023/08/05 00:28:58;;;;;;;8.20;4.80;;;;;;;24.72;100.00;100642.62;110020;1241;60863;-70
2023/08/05 00:31:27;;;;;;;8.20;4.60;;;;;;;24.64;100.00;100642.94;110093;1237;70899;-70
2023/08/05 00:33:55;;;;;;;7.10;5.20;;;;;;;24.54;100.00;100640.63;110008;1238;73312;-70
2023/08/05 00:36:24;;;;;;;6.30;5.30;;;;;;;24.44;100.00;100643.16;110101;1239;57738;-70
2023/08/05 00:38:53;;;;;;;8.60;5.30;;;;;;;24.37;100.00;100639.91;109923;1242;58380;-70
2023/08/05 00:41:22;;;;;;;7.70;5.10;;;;;;;24.39;100.00;100634.65;110003;1237;72514;-69
2023/08/05 00:43:50;;;;;;;8.30;5.20;;;;;;;24.37;100.00;100631.08;110041;1238;71773;-70
2023/08/05 00:46:22;;;;;;;9.50;5.40;;;;;;;24.36;100.00;100630.05;110047;1238;60207;-69
2023/08/05 00:48:52;;;;;;;11.60;5.70;;;;;;;24.36;100.00;100634.39;109951;1237;73794;-70
2023/08/05 00:51:21;;;;;;;10.90;5.50;;;;;;;24.32;100.00;100636.39;109972;1238;62264;-70
2023/08/05 00:53:50;;;;;;;9.70;5.50;;;;;;;24.29;100.00;100632.81;109917;1241;58286;-71
2023/08/05 00:56:19;;;;;;;7.50;5.20;;;;;;;24.25;100.00;100628.81;110082;1238;62968;-70
2023/08/05 00:58:48;;;;;;;7.40;5.40;;;;;;;24.20;100.00;100629.05;110092;1240;60757;-70
2023/08/05 01:01:17;;;;;;;12.10;5.40;;;;;;;24.11;100.00;100624.83;110101;1240;59804;-70
2023/08/05 01:03:46;;;;;;;8.80;5.70;;;;;;;24.04;100.00;100620.63;110040;1241;62810;-70
2023/08/05 01:06:16;;;;;;;10.00;5.90;;;;;;;23.99;100.00;100618.23;110021;1241;58443;-70
2023/08/05 01:08:46;;;;;;;9.40;6.00;;;;;;;23.97;100.00;100615.77;109988;1241;57802;-70
2023/08/05 01:11:16;;;;;;;8.80;5.30;;;;;;;23.94;100.00;100617.16;109851;1241;62937;-71
2023/08/05 01:13:45;;;;;;;8.00;5.50;;;;;;;23.86;100.00;100617.38;110025;1238;72145;-70
2023/08/05 01:16:13;;;;;;;10.20;5.90;;;;;;;23.84;100.00;100617.70;110118;1238;71681;-71
2023/08/05 01:18:43;;;;;;;7.40;5.60;;;;;;;23.88;100.00;100619.18;110003;1238;74135;-70
2023/08/05 01:21:25;;;;;;;10.10;5.50;;;;;;;23.84;100.00;100618.63;110018;1240;58328;-70
2023/08/05 01:24:34;;;;;;;8.10;6.00;;;;;;;23.81;100.00;100621.77;109946;1237;57798;-71
2023/08/05 01:27:05;;;;;;;7.70;5.50;;;;;;;23.82;100.00;100616.36;109947;1241;63529;-70
2023/08/05 01:29:34;;;;;;;8.60;5.00;;;;;;;23.79;100.00;100613.33;110125;1238;61016;-70
2023/08/05 01:32:05;;;;;;;9.30;6.50;;;;;;;23.72;100.00;100614.08;110036;1241;60565;-70
2023/08/05 01:34:34;;;;;;;13.20;5.40;;;;;;;23.71;100.00;100612.45;110146;1238;63287;-70
2023/08/05 01:37:03;;;;;;;6.40;5.10;;;;;;;23.65;100.00;100609.70;110048;1239;57801;-70
2023/08/05 01:39:33;;;;;;;9.00;5.80;;;;;;;23.62;100.00;100611.02;110047;1237;61103;-70
2023/08/05 01:42:02;;;;;;;11.00;5.70;;;;;;;23.56;100.00;100612.21;110014;1239;65256;-70
2023/08/05 01:44:30;;;;;;;10.00;5.50;;;;;;;23.52;100.00;100610.42;109915;1241;72044;-70
2023/08/05 01:46:59;;;;;;;8.70;6.00;;;;;;;23.47;100.00;100609.63;110018;1238;59755;-70
2023/08/05 01:49:28;;;;;;;7.80;5.90;;;;;;;23.45;100.00;100606.17;110006;1240;63328;-69
2023/08/05 01:51:58;;;;;;;8.50;6.30;;;;;;;23.37;100.00;100605.31;110084;1240;61504;-69
2023/08/05 01:54:27;;;;;;;7.70;5.70;;;;;;;23.36;100.00;100606.08;109964;1237;58306;-70
2023/08/05 01:56:55;;;;;;;9.40;5.70;;;;;;;23.29;100.00;100603.09;110074;1239;74703;-69
2023/08/05 01:59:24;;;;;;;11.60;5.60;;;;;;;23.24;100.00;100606.75;109892;1242;61482;-69
2023/08/05 02:01:53;;;;;;;7.20;5.90;;;;;;;23.20;100.00;100611.39;110010;1241;59801;-69
2023/08/05 02:04:22;;;;;;;11.20;6.60;;;;;;;23.14;100.00;100616.62;109973;1239;62517;-70
2023/08/05 02:06:50;;;;;;;7.40;6.00;;;;;;;23.09;100.00;100617.60;109933;1239;62846;-72
2023/08/05 02:09:20;;;;;;;7.70;5.80;;;;;;;23.00;100.00;100614.44;110092;1238;58318;-70
2023/08/05 02:11:49;;;;;;;11.10;5.90;;;;;;;22.91;100.00;100616.31;109967;1238;73470;-70
2023/08/05 02:14:19;;;;;;;8.60;6.10;;;;;;;22.88;100.00;100615.39;109859;1238;62943;-70
2023/08/05 02:16:47;;;;;;;11.60;6.10;;;;;;;22.82;100.00;100613.89;109948;1237;70548;-70
2023/08/05 02:19:19;;;;;;;8.50;5.70;;;;;;;22.66;100.00;100612.36;109891;1239;74472;-70
2023/08/05 02:21:48;;;;;;;8.60;5.90;;;;;;;22.63;100.00;100613.00;109777;1241;57896;-70
2023/08/05 02:24:17;;;;;;;8.60;5.80;;;;;;;22.61;100.00;100619.20;109948;1239;58293;-70
2023/08/05 02:26:47;;;;;;;9.50;6.30;;;;;;;22.56;100.00;100622.35;109837;1239;62909;-70
2023/08/05 02:29:16;;;;;;;8.90;6.40;;;;;;;22.55;100.00;100627.39;109834;1241;72118;-70
2023/08/05 02:31:45;;;;;;;9.00;7.30;;;;;;;22.50;100.00;100624.47;109906;1239;60573;-69
2023/08/05 02:34:14;;;;;;;8.80;6.20;;;;;;;22.48;100.00;100620.77;109829;1239;72908;-70
2023/08/05 02:36:42;;;;;;;9.10;6.40;;;;;;;22.44;100.00;100621.19;109963;1239;63209;-70
2023/08/05 02:39:12;;;;;;;9.60;6.30;;;;;;;22.40;100.00;100619.27;109861;1238;57778;-70
2023/08/05 02:41:41;;;;;;;9.10;6.90;;;;;;;22.37;100.00;100616.17;109999;1241;63610;-69
2023/08/05 02:44:10;;;;;;;7.70;5.90;;;;;;;22.40;100.00;100621.23;110009;1238;71619;-69
2023/08/05 02:46:38;;;;;;;10.20;6.80;;;;;;;22.33;100.00;100620.71;110033;1237;70556;-70
2023/08/05 02:49:08;;;;;;;13.20;7.60;;;;;;;22.27;100.00;100622.86;110113;1238;63606;-70
2023/08/05 02:51:37;;;;;;;9.90;6.50;;;;;;;22.28;100.00;100624.55;110148;1238;57751;-69
2023/08/05 02:54:06;;;;;;;12.00;6.70;;;;;;;22.27;100.00;100624.00;109901;1237;58138;-69
2023/08/05 02:56:35;;;;;;;8.70;7.00;;;;;;;22.15;100.00;100621.44;109920;1238;64621;-71
2023/08/05 02:59:03;;;;;;;10.00;6.50;;;;;;;22.12;100.00;100626.01;109984;1238;72460;-70
2023/08/05 03:01:32;;;;;;;11.50;7.00;;;;;;;22.09;100.00;100624.58;110042;1238;60490;-71
2023/08/05 03:04:01;;;;;;;10.60;6.80;;;;;;;22.10;100.00;100623.40;109993;1238;71741;-71
2023/08/05 03:06:30;;;;;;;11.00;7.10;;;;;;;22.10;100.00;100626.06;109958;1241;64191;-70
2023/08/05 03:08:58;;;;;;;8.80;6.80;;;;;;;22.06;100.00;100627.95;110071;1239;60634;-70
2023/08/05 03:11:33;;;;;;;9.80;7.60;;;;;;;21.97;100.00;100633.23;110158;1236;63603;-71
2023/08/05 03:14:02;;;;;;;11.10;7.40;;;;;;;22.00;100.00;100635.19;109956;1237;70569;-68
2023/08/05 03:16:31;;;;;;;10.50;7.20;;;;;;;21.97;100.00;100638.63;109985;1236;70780;-71
2023/08/05 03:19:04;;;;;;;8.00;7.20;;;;;;;21.94;100.00;100641.05;109963;1237;62846;-69
2023/08/05 03:21:33;;;;;;;8.60;7.50;;;;;;;21.94;100.00;100637.08;110007;1237;58237;-68
2023/08/05 03:24:02;;;;;;;9.30;7.50;;;;;;;21.93;100.00;100634.48;110051;1237;58229;-69
2023/08/05 03:26:31;;;;;;;10.70;7.20;;;;;;;21.85;100.00;100640.07;110123;1238;74225;-69
2023/08/05 03:29:04;;;;;;;9.90;7.80;;;;;;;21.78;100.00;100639.43;110125;1238;72420;-70
2023/08/05 03:31:33;;;;;;;13.00;7.60;;;;;;;21.78;100.00;100639.96;110048;1236;70907;-69
2023/08/05 03:34:01;;;;;;;14.10;7.50;;;;;;;21.78;100.00;100637.90;110020;1237;74184;-69
2023/08/05 03:36:31;;;;;;;11.90;8.20;;;;;;;21.78;100.00;100640.27;109837;1237;57785;-69
2023/08/05 03:39:00;;;;;;;10.00;8.00;;;;;;;21.74;100.00;100641.42;110088;1239;59751;-69
2023/08/05 03:41:29;;;;;;;11.40;8.80;;;;;;;21.72;100.00;100644.70;110130;1237;63421;-69
2023/08/05 03:43:59;;;;;;;11.10;8.80;;;;;;;21.71;100.00;100644.22;110054;1238;72221;-69
2023/08/05 03:46:28;;;;;;;10.10;9.10;;;;;;;21.72;100.00;100647.98;110036;1237;69815;-69
2023/08/05 03:48:57;;;;;;;12.90;9.70;;;;;;;21.70;100.00;100651.23;110039;1237;63202;-69
2023/08/05 03:51:27;;;;;;;14.30;9.30;;;;;;;21.68;100.00;100657.70;109888;1241;62851;-69
2023/08/05 03:53:56;;;;;;;14.00;10.00;;;;;;;21.69;100.00;100658.05;109892;1238;58280;-70
2023/08/05 03:56:27;;;;;;;12.60;9.50;;;;;;;21.66;100.00;100660.21;109907;1237;63007;-69
2023/08/05 03:58:57;;;;;;;15.50;9.20;;;;;;;21.67;100.00;100658.64;109924;1237;61442;-69
2023/08/05 04:01:26;;;;;;;12.70;9.40;;;;;;;21.73;100.00;100657.23;109830;1237;59230;-69
2023/08/05 04:03:56;;;;;;;12.00;9.10;;;;;;;21.79;100.00;100652.81;110005;1237;73576;-69
2023/08/05 04:06:25;;;;;;;15.30;9.90;;;;;;;21.89;100.00;100651.75;109968;1240;61588;-69
2023/08/05 04:08:54;;;;;;;11.40;9.30;;;;;;;21.97;100.00;100650.08;110015;1238;57665;-69
2023/08/05 04:11:23;;;;;;;12.70;8.80;;;;;;;22.01;100.00;100651.77;110027;1237;63830;-70
2023/08/05 04:13:52;;;;;;;10.70;8.80;;;;;;;22.09;100.00;100652.90;110026;1237;61510;-70
2023/08/05 04:16:23;;;;;;;12.00;9.00;;;;;;;22.13;100.00;100647.77;110153;1238;59838;-70
2023/08/05 04:18:52;;;;;;;12.40;7.70;;;;;;;22.13;100.00;100648.00;110042;1237;73825;-70
2023/08/05 04:21:25;;;;;;;12.20;7.90;;;;;;;22.26;100.00;100643.07;110140;1239;63069;-70
2023/08/05 04:23:54;;;;;;;;;;;;;;;22.42;100.00;100638.86;109946;1237;61628;-70
2023/08/05 04:26:24;;;;;;;10.50;8.40;;;;;;;22.43;100.00;100636.70;110101;1237;64953;-70
2023/08/05 04:28:53;;;;;;;11.60;9.20;;;;;;;22.51;100.00;100637.87;110169;1237;71167;-70
2023/08/05 04:31:22;;;;;;;20.60;16.50;;;;;;;22.57;100.00;100635.98;110177;1237;68087;-70
2023/08/05 04:33:51;;;;;;;10.40;7.60;;;;;;;22.64;100.00;100634.39;110116;1238;74329;-70
2023/08/05 04:36:19;;;;;;;10.80;9.60;;;;;;;22.67;100.00;100637.34;110113;1239;61444;-70
2023/08/05 04:38:48;;;;;;;13.00;8.60;;;;;;;22.75;100.00;100637.11;110138;1237;58362;-70
2023/08/05 04:41:17;;;;;;;10.20;8.10;;;;;;;22.78;100.00;100640.62;110152;1237;62989;-71
2023/08/05 04:43:46;;;;;;;9.70;8.30;;;;;;;22.81;100.00;100641.34;110118;1238;72029;-70
2023/08/05 04:46:15;;;;;;;11.60;8.50;;;;;;;22.81;100.00;100650.23;110114;1237;70123;-70
2023/08/05 04:48:43;;;;;;;11.30;8.40;;;;;;;22.75;100.00;100646.36;110092;1237;73327;-70
2023/08/05 04:51:12;;;;;;;10.50;8.50;;;;;;;22.84;100.00;100647.73;110113;1239;58343;-70
2023/08/05 04:53:41;;;;;;;11.30;8.40;;;;;;;22.88;100.00;100650.17;110105;1238;58346;-70
2023/08/05 04:56:10;;;;;;;11.40;9.30;;;;;;;22.98;100.00;100655.02;110101;1238;65568;-70
2023/08/05 04:58:39;;;;;;;11.80;8.70;;;;;;;23.05;100.00;100658.94;109970;1237;61837;-70
2023/08/05 05:01:08;;;;;;;11.70;9.20;;;;;;;23.12;100.00;100662.67;110064;1238;69412;-70
2023/08/05 05:03:36;;;;;;;12.40;9.00;;;;;;;23.13;100.00;100661.86;109927;1237;74119;-70
2023/08/05 05:06:06;;;;;;;12.00;8.90;;;;;;;23.17;100.00;100660.83;109795;1240;62932;-69
2023/08/05 05:08:34;;;;;;;16.30;10.10;;;;;;;23.21;100.00;100655.52;109849;1237;61012;-70
2023/08/05 05:11:03;;;;;;;13.80;9.20;;;;;;;23.33;100.00;100658.19;109960;1238;64313;-70
2023/08/05 05:13:32;;;;;;;14.40;9.50;;;;;;;23.38;100.00;100657.60;109959;1239;60869;-70
2023/08/05 05:16:03;;;;;;;11.10;9.20;;;;;;;23.45;100.00;100657.48;109931;1238;71073;-70
2023/08/05 05:18:32;;;;;;;12.90;9.40;;;;;;;23.61;100.00;100656.73;109714;1237;74114;-70
2023/08/05 05:21:01;;;;;;;13.50;9.60;;;;;;;23.71;100.00;100653.06;109964;1239;63245;-70
2023/08/05 05:23:30;;;;;;;10.40;8.40;;;;;;;23.80;100.00;100651.61;109874;1237;61136;-70
2023/08/05 05:25:59;;;;;;;12.90;9.80;;;;;;;23.82;100.00;100650.35;110018;1237;74771;-70
2023/08/05 05:28:27;;;;;;;11.20;8.50;;;;;;;23.83;100.00;100651.23;110098;1237;71719;-70
2023/08/05 05:30:58;;;;;;;12.80;8.70;;;;;;;23.79;100.00;100651.20;109904;1237;61194;-70
2023/08/05 05:33:26;;;;;;;13.00;9.60;;;;;;;23.82;100.00;100653.59;110000;1238;73837;-70
2023/08/05 05:35:55;;;;;;;8.40;7.30;;;;;;;23.88;100.00;100662.77;110078;1239;58355;-70
2023/08/05 05:38:24;;;;;;;11.30;8.70;;;;;;;23.80;100.00;100661.21;110086;1238;58278;-70
2023/08/05 05:40:56;;;;;;;9.60;8.10;;;;;;;23.91;100.00;100664.87;110115;1238;74289;-70
2023/08/05 05:43:24;;;;;;;11.70;8.00;;;;;;;24.04;100.00;100663.28;110059;1237;71787;-71
2023/08/05 05:45:53;;;;;;;8.80;7.20;;;;;;;24.05;100.00;100666.98;110050;1237;60496;-69
2023/08/05 05:48:22;;;;;;;9.40;7.10;;;;;;;23.98;100.00;100664.29;110009;1239;63051;-71
2023/08/05 05:50:54;;;;;;;9.80;7.40;;;;;;;23.93;100.00;100665.48;110078;1237;61921;-69
2023/08/05 05:53:23;;;;;;;10.70;7.70;;;;;;;23.95;100.00;100663.16;110105;1237;61257;-71
2023/08/05 05:55:54;;;;;;;8.00;7.20;;;;;;;24.03;100.00;100666.77;110000;1238;74814;-70
2023/08/05 05:58:23;;;;;;;9.00;8.10;;;;;;;24.01;100.00;100669.21;110090;1237;62086;-70
2023/08/05 06:00:55;;;;;;;8.40;7.50;;;;;;;24.10;100.00;100667.98;110112;1239;59756;-70
2023/08/05 06:03:24;;;;;;;9.50;7.80;;;;;;;24.20;100.00;100671.13;110011;1237;63230;-71
2023/08/05 06:05:55;;;;;;;11.10;8.20;;;;;;;24.22;100.00;100670.11;109943;1239;57807;-70
2023/08/05 06:08:24;;;;;;;8.60;7.40;;;;;;;24.39;100.00;100670.84;109920;1237;57988;-71
2023/08/05 06:10:53;;;;;;;9.20;7.00;;;;;;;24.53;100.00;100676.08;110123;1238;73179;-69
2023/08/05 06:13:22;;;;;;;7.10;6.30;;;;;;;24.69;100.00;100675.61;110023;1240;62256;-70
2023/08/05 06:15:53;;;;;;;10.30;6.60;;;;;;;24.80;100.00;100673.93;110006;1238;58964;-70
2023/08/05 06:18:22;;;;;;;7.40;6.60;;;;;;;24.66;100.00;100672.08;110000;1237;73792;-70
2023/08/05 06:20:51;;;;;;;8.40;6.30;;;;;;;24.59;100.00;100667.92;110090;1239;58348;-70
2023/08/05 06:23:20;;;;;;;8.90;6.70;;;;;;;24.68;100.00;100668.95;110005;1237;57803;-70
2023/08/05 06:25:49;;;;;;;7.80;6.10;;;;;;;24.65;100.00;100671.50;110084;1238;74720;-71
2023/08/05 06:28:17;;;;;;;9.00;6.30;;;;;;;24.67;100.00;100663.17;110111;1237;71682;-70
2023/08/05 06:30:46;;;;;;;9.10;6.20;;;;;;;24.86;100.00;100664.23;110132;1237;60624;-70
2023/08/05 06:33:15;;;;;;;7.70;6.60;;;;;;;25.08;100.00;100666.80;110024;1238;62287;-71
2023/08/05 06:35:44;;;;;;;8.60;6.90;;;;;;;25.28;100.00;100667.61;110123;1239;60722;-71
2023/08/05 06:38:13;;;;;;;23.60;17.60;;;;;;;25.42;100.00;100670.58;110125;1237;60331;-71
2023/08/05 06:40:41;;;;;;;9.50;6.90;;;;;;;25.47;100.00;100668.92;109949;1237;74893;-70
2023/08/05 06:43:10;;;;;;;7.50;5.70;;;;;;;25.56;100.00;100669.60;110122;1237;64117;-71
2023/08/05 06:45:39;;;;;;;6.90;5.00;;;;;;;25.53;100.00;100667.91;110069;1238;60415;-74
2023/08/05 06:48:08;;;;;;;6.40;5.30;;;;;;;25.74;100.00;100662.39;110043;1238;62396;-72
2023/08/05 06:50:37;;;;;;;6.50;5.50;;;;;;;25.82;100.00;100660.16;110131;1239;57762;-71
2023/08/05 06:53:05;;;;;;;8.00;5.40;;;;;;;25.84;100.00;100656.73;110052;1237;61091;-71
2023/08/05 06:55:34;;;;;;;8.50;5.30;;;;;;;25.92;100.00;100660.13;109931;1242;64225;-72
2023/08/05 06:58:03;;;;;;;6.20;5.10;;;;;;;25.97;100.00;100665.82;110160;1238;60718;-74
2023/08/05 07:00:32;;;;;;;9.40;5.90;;;;;;;26.01;100.00;100666.65;110176;1239;59004;-74
2023/08/05 07:03:03;;;;;;;9.00;5.00;;;;;;;26.24;100.00;100670.95;110120;1237;73431;-72
2023/08/05 07:05:32;;;;;;;8.90;5.90;;;;;;;26.26;100.00;100669.41;110077;1239;60007;-71
2023/08/05 07:08:01;;;;;;;9.80;6.60;;;;;;;26.46;100.00;100675.67;110085;1239;57789;-70
2023/08/05 07:10:30;;;;;;;6.80;5.80;;;;;;;26.57;100.00;100677.81;110014;1240;62833;-72
2023/08/05 07:13:02;;;;;;;7.00;5.70;;;;;;;26.68;100.00;100677.04;110168;1239;61425;-71
2023/08/05 07:15:31;;;;;;;10.10;5.70;;;;;;;26.85;100.00;100680.29;110146;1237;69621;-72
2023/08/05 07:17:59;;;;;;;6.80;5.20;;;;;;;26.98;100.00;100675.64;110128;1237;73583;-72
2023/08/05 07:20:28;;;;;;;7.70;5.00;;;;;;;27.06;99.25;100673.31;110054;1239;58754;-71
2023/08/05 07:22:57;;;;;;;8.50;5.20;;;;;;;27.24;97.65;100667.32;109888;1241;58219;-71
2023/08/05 07:25:26;;;;;;;6.50;5.30;;;;;;;27.34;96.41;100664.48;109994;1239;63742;-72
2023/08/05 07:27:55;;;;;;;11.50;5.70;;;;;;;27.26;96.17;100664.32;110049;1238;63303;-71
2023/08/05 07:30:24;;;;;;;8.60;5.60;;;;;;;27.05;97.27;100669.91;109960;1237;61274;-72
2023/08/05 07:32:52;;;;;;;7.20;5.60;;;;;;;27.21;96.88;100665.64;110046;1238;64550;-71
2023/08/05 07:35:21;;;;;;;8.10;5.50;;;;;;;27.31;96.02;100666.38;110076;1239;58351;-72
2023/08/05 07:37:52;;;;;;;7.10;5.40;;;;;;;27.46;96.30;100667.91;110016;1239;58313;-72
2023/08/05 07:40:21;;;;;;;6.10;4.90;;;;;;;27.61;93.52;100671.09;110102;1237;65929;-73
2023/08/05 07:42:50;;;;;;;6.60;5.10;;;;;;;27.77;92.82;100667.62;110084;1237;72445;-71
2023/08/05 07:45:21;;;;;;;9.80;5.90;;;;;;;27.96;90.65;100667.30;109899;1237;70577;-75
2023/08/05 07:47:51;;;;;;;7.30;5.90;;;;;;;27.95;90.89;100664.90;110013;1238;65112;-71
2023/08/05 07:50:22;;;;;;;8.20;6.20;;;;;;;28.02;87.09;100661.70;110114;1239;58318;-72
2023/08/05 07:52:53;;;;;;;6.20;5.20;;;;;;;28.06;83.07;100656.52;110145;1238;58260;-70
2023/08/05 07:55:24;;;;;;;6.00;5.10;;;;;;;28.22;82.28;100661.84;110047;1238;63558;-71
2023/08/05 07:57:53;;;;;;;7.20;4.90;;;;;;;28.30;81.09;100662.48;110049;1238;63412;-73
2023/08/05 08:00:22;;;;;;;7.60;4.70;;;;;;;28.44;81.36;100657.38;110160;1238;71118;-71
2023/08/05 08:02:51;;;;;;;6.10;4.70;;;;;;;28.42;80.13;100651.87;110011;1237;74377;-71
2023/08/05 08:05:20;;;;;;;8.40;5.00;;;;;;;28.46;80.18;100647.17;110116;1239;61622;-73
2023/08/05 08:07:50;;;;;;;6.90;4.60;;;;;;;28.47;80.20;100640.48;109891;1242;61424;-73
2023/08/05 08:10:20;;;;;;;8.00;5.70;;;;;;;28.69;81.47;100643.92;110038;1238;75552;-71
2023/08/05 08:12:49;;;;;;;6.60;4.90;;;;;;;28.84;79.10;100638.25;110098;1238;61167;-71
2023/08/05 08:15:18;;;;;;;7.40;5.30;;;;;;;28.98;77.21;100639.65;110101;1239;69614;-70
2023/08/05 08:17:47;;;;;;;6.10;4.70;;;;;;;29.07;76.71;100639.08;110037;1239;63710;-70
2023/08/05 08:20:16;;;;;;;7.10;5.60;;;;;;;29.15;75.74;100645.61;110050;1241;58348;-70
2023/08/05 08:22:45;;;;;;;6.60;4.40;;;;;;;29.21;74.97;100646.93;110050;1237;58116;-70
2023/08/05 08:25:14;;;;;;;7.20;5.10;;;;;;;29.47;75.62;100648.15;110034;1237;74248;-70
2023/08/05 08:27:42;;;;;;;5.30;4.80;;;;;;;29.45;74.47;100651.65;110165;1237;72546;-70
2023/08/05 08:30:12;;;;;;;5.20;4.70;;;;;;;29.44;73.97;100654.36;110049;1238;68191;-71
2023/08/05 08:32:41;;;;;;;7.10;5.10;;;;;;;29.52;74.90;100650.30;110000;1237;63100;-71
2023/08/05 08:35:10;;;;;;;6.40;4.40;;;;;;;29.60;73.40;100645.25;110042;1239;58264;-70
2023/08/05 08:37:42;;;;;;;8.40;4.90;;;;;;;29.70;72.70;100633.51;109962;1239;60412;-70
2023/08/05 08:40:11;;;;;;;9.60;5.30;;;;;;;29.87;73.13;100635.52;109925;1238;74726;-71
2023/08/05 08:42:42;;;;;;;5.50;4.50;;;;;;;29.94;72.17;100633.92;110121;1237;61747;-70
2023/08/05 08:45:15;;;;;;;6.70;4.70;;;;;;;30.11;72.28;100632.59;110040;1237;60619;-70
2023/08/05 08:47:46;;;;;;;;;;;;;;;30.26;71.08;100631.23;110022;1237;73758;-70
2023/08/05 08:50:17;;;;;;;6.80;4.70;;;;;;;30.41;70.75;100634.69;110118;1237;58278;-70
2023/08/05 08:52:48;;;;;;;5.60;4.90;;;;;;;30.21;69.58;100635.84;109869;1239;57779;-71
2023/08/05 08:55:18;;;;;;;6.40;4.60;;;;;;;30.23;69.65;100638.14;110096;1238;64919;-71
2023/08/05 08:57:47;;;;;;;7.30;4.60;;;;;;;30.52;69.45;100638.42;109995;1238;62004;-71
2023/08/05 09:00:16;;;;;;;6.90;4.80;;;;;;;30.60;68.66;100633.10;110032;1237;69367;-71
2023/08/05 09:02:45;;;;;;;6.80;5.10;;;;;;;30.69;67.99;100624.64;110082;1237;75058;-71
2023/08/05 09:05:14;;;;;;;6.30;4.90;;;;;;;30.60;67.56;100620.50;110094;1239;58212;-71
2023/08/05 09:07:44;;;;;;;5.90;4.40;;;;;;;30.68;67.22;100614.32;110120;1237;58286;-71
2023/08/05 09:10:13;;;;;;;6.80;4.30;;;;;;;30.62;67.07;100615.45;109906;1238;267299;-70
2023/08/05 09:12:43;;;;;;;6.70;4.20;;;;;;;30.90;67.61;100616.62;110119;1237;63288;-71
2023/08/05 09:15:15;;;;;;;8.70;4.60;;;;;;;31.12;67.13;100617.90;109990;1238;62082;-70
2023/08/05 09:17:44;;;;;;;6.90;4.60;;;;;;;31.21;66.03;100612.46;109950;1238;73188;-70
2023/08/05 09:20:21;;;;;;;6.00;4.20;;;;;;;30.99;64.74;100607.84;110178;1239;58222;-70
2023/08/05 09:22:55;;;;;;;7.70;4.60;;;;;;;30.67;66.04;100609.77;110201;1237;57704;-70
2023/08/05 09:25:24;;;;;;;5.50;4.70;;;;;;;30.81;66.39;100605.90;110057;1237;62856;-71
2023/08/05 09:27:53;;;;;;;6.70;4.10;;;;;;;30.78;65.18;100600.20;110042;1238;61032;-71
2023/08/05 09:30:24;;;;;;;8.60;4.00;;;;;;;30.60;64.78;100599.36;110064;1238;59331;-70
2023/08/05 09:32:54;;;;;;;5.40;3.70;;;;;;;30.69;65.40;100594.93;109934;1238;62347;-70
2023/08/05 09:35:25;;;;;;;4.60;4.00;;;;;;;30.72;65.88;100596.45;109961;1239;60818;-70
2023/08/05 09:37:54;;;;;;;5.70;4.50;;;;;;;31.18;65.33;100594.69;109884;1238;61252;-70
2023/08/05 09:40:33;;;;;;;6.60;4.30;;;;;;;31.50;64.26;100591.59;110006;1238;64839;-70
2023/08/05 09:43:03;;;;;;;6.90;4.20;;;;;;;31.35;63.10;100587.52;110010;1237;61498;-70
2023/08/05 09:45:35;;;;;;;5.40;3.80;;;;;;;31.43;63.28;100588.16;110034;1238;60567;-71
2023/08/05 09:48:09;;;;;;;5.00;3.90;;;;;;;31.57;63.51;100589.30;110026;1237;63028;-70
2023/08/05 09:50:40;;;;;;;5.00;4.00;;;;;;;31.83;63.29;100580.80;110041;1239;60216;-71
2023/08/05 09:53:10;;;;;;;7.20;3.80;;;;;;;32.06;62.38;100582.27;110011;1237;61319;-71
2023/08/05 09:55:39;;;;;;;6.20;4.40;;;;;;;31.92;61.72;100581.77;109900;1237;63462;-71
2023/08/05 09:58:08;;;;;;;7.10;4.10;;;;;;;31.76;62.22;100573.71;109889;1241;71997;-71
2023/08/05 10:00:41;;;;;;;8.60;4.00;;;;;;;31.50;62.99;100580.15;109908;1238;61781;-72
2023/08/05 10:03:13;;;;;;;6.30;4.20;;;;;;;31.77;61.94;100577.80;109895;1238;62923;-71
2023/08/05 10:05:44;;;;;;;7.00;3.60;;;;;;;31.49;61.36;100575.21;109748;1237;61381;-70
2023/08/05 10:08:16;;;;;;;6.40;4.10;;;;;;;31.50;61.94;100571.77;109879;1238;58292;-70
2023/08/05 10:10:47;;;;;;;5.40;4.20;;;;;;;31.89;61.21;100565.31;110101;1238;75065;-71
2023/08/05 10:13:20;;;;;;;5.30;4.10;;;;;;;31.96;60.98;100554.83;109898;1238;71787;-70
2023/08/05 10:15:53;;;;;;;4.90;3.50;;;;;;;32.14;60.76;100557.05;110027;1238;70929;-70
2023/08/05 10:18:26;;;;;;;6.90;3.70;;;;;;;31.81;61.28;100554.06;109888;1237;63332;-71
2023/08/05 10:20:55;;;;;;;6.80;4.00;;;;;;;31.58;61.98;100542.50;109849;1239;61044;-71
2023/08/05 10:23:25;;;;;;;8.60;4.30;;;;;;;31.66;62.40;100535.73;110014;1237;58293;-71
2023/08/05 10:26:01;;;;;;;7.80;4.30;;;;;;;31.88;62.37;100533.78;109981;1237;64815;-70
2023/08/05 10:28:38;;;;;;;5.80;4.20;;;;;;;32.27;61.08;100529.82;110007;1238;63900;-70
2023/08/05 10:31:28;;;;;;;6.80;4.00;;;;;;;32.49;59.47;100525.84;110081;1237;70935;-70
2023/08/05 10:34:10;;;;;;;4.70;3.70;;;;;;;32.95;58.70;100529.10;110002;1237;74343;-70
2023/08/05 10:36:48;;;;;;;6.00;3.70;;;;;;;32.93;58.15;100528.59;109970;1239;61510;-72
2023/08/05 10:39:44;;;;;;;6.60;3.80;;;;;;;32.97;57.13;100534.23;109876;1240;58256;-71
2023/08/05 10:42:35;;;;;;;6.00;4.00;;;;;;;32.54;57.02;100541.60;109972;1237;62807;-70
2023/08/05 10:45:05;;;;;;;4.00;3.60;;;;;;;32.74;56.63;100531.02;109867;1237;61638;-70
2023/08/05 10:47:34;;;;;;;4.50;3.30;;;;;;;33.13;55.44;100530.20;109765;1238;70262;-71
2023/08/05 10:50:03;;;;;;;7.50;3.80;;;;;;;33.48;54.91;100525.78;109719;1237;63465;-70
2023/08/05 10:52:36;;;;;;;6.40;3.70;;;;;;;33.17;54.58;100522.80;109949;1239;58279;-71
2023/08/05 10:55:12;;;;;;;5.80;3.60;;;;;;;32.81;55.18;100514.17;109744;1237;61380;-70
2023/08/05 10:57:41;;;;;;;4.60;3.20;;;;;;;32.99;55.29;100511.20;109838;1238;63162;-72
2023/08/05 11:00:19;;;;;;;4.70;3.50;;;;;;;33.51;53.94;100499.20;109929;1237;71971;-70
2023/08/05 11:03:08;;;;;;;7.50;3.50;;;;;;;33.77;52.89;100505.85;109873;1237;70335;-70
2023/08/05 11:05:38;;;;;;;7.30;3.60;;;;;;;33.75;53.13;100508.17;109834;1238;62939;-71
2023/08/05 11:08:07;;;;;;;3.70;3.20;;;;;;;33.77;52.83;100509.98;109849;1237;61242;-70
2023/08/05 11:10:37;;;;;;;4.40;3.40;;;;;;;33.81;53.00;100514.04;109850;1238;57855;-70
2023/08/05 11:13:06;;;;;;;7.90;4.80;;;;;;;34.04;52.55;100503.20;109941;1237;73316;-71
2023/08/05 11:15:40;;;;;;;7.20;3.80;;;;;;;34.31;51.74;100494.21;109887;1237;61041;-71
2023/08/05 11:18:13;;;;;;;4.30;3.90;;;;;;;34.53;50.47;100487.88;109861;1238;70621;-71
2023/08/05 11:20:42;;;;;;;4.60;2.90;;;;;;;34.94;50.27;100488.41;109926;1237;73593;-72
2023/08/05 11:23:14;;;;;;;5.90;3.50;;;;;;;35.40;48.94;100483.04;109760;1241;58396;-71